Аэропорт: Усть-Каменогорск. Усть-Каменогорск

ICAO: UASK

METAR:
2018/09/23 11:00
UASK 231100Z 13004MPS 9999 SCT040CB BKN076 17/12 Q1012 R12/090060 NOSIG RMK QFE734/0979
METAR:
Информация по данной станции не доступна